sensor_id;sensor_type;location;lat;lon;timestamp;P1;durP1;ratioP1;P2;durP2;ratioP2
3439;SDS011;1733;42.286;22.690;2023-04-01T00:00:58;5.57;;;4.20;;
3439;SDS011;1733;42.286;22.690;2023-04-01T00:03:26;5.40;;;4.87;;
3439;SDS011;1733;42.286;22.690;2023-04-01T00:05:56;5.47;;;3.87;;
3439;SDS011;1733;42.286;22.690;2023-04-01T00:08:25;8.00;;;6.00;;
3439;SDS011;1733;42.286;22.690;2023-04-01T00:10:53;7.13;;;4.53;;
3439;SDS011;1733;42.286;22.690;2023-04-01T00:13:22;9.07;;;5.60;;
3439;SDS011;1733;42.286;22.690;2023-04-01T00:15:50;11.23;;;6.90;;
3439;SDS011;1733;42.286;22.690;2023-04-01T00:18:18;5.80;;;4.90;;
3439;SDS011;1733;42.286;22.690;2023-04-01T00:20:45;8.30;;;4.67;;
3439;SDS011;1733;42.286;22.690;2023-04-01T00:23:14;7.83;;;4.67;;
3439;SDS011;1733;42.286;22.690;2023-04-01T00:25:43;11.03;;;5.30;;
3439;SDS011;1733;42.286;22.690;2023-04-01T00:28:10;12.53;;;9.53;;
3439;SDS011;1733;42.286;22.690;2023-04-01T00:30:37;9.40;;;6.80;;
3439;SDS011;1733;42.286;22.690;2023-04-01T00:33:04;9.87;;;6.30;;
3439;SDS011;1733;42.286;22.690;2023-04-01T00:35:31;13.70;;;8.63;;
3439;SDS011;1733;42.286;22.690;2023-04-01T00:37:58;10.93;;;5.80;;
3439;SDS011;1733;42.286;22.690;2023-04-01T00:40:27;10.80;;;6.00;;
3439;SDS011;1733;42.286;22.690;2023-04-01T00:42:56;5.57;;;5.07;;
3439;SDS011;1733;42.286;22.690;2023-04-01T00:45:25;6.73;;;6.00;;
3439;SDS011;1733;42.286;22.690;2023-04-01T00:48:01;9.93;;;6.30;;
3439;SDS011;1733;42.286;22.690;2023-04-01T00:50:32;6.60;;;5.77;;
3439;SDS011;1733;42.286;22.690;2023-04-01T00:53:00;13.80;;;7.23;;
3439;SDS011;1733;42.286;22.690;2023-04-01T00:55:31;11.53;;;7.80;;
3439;SDS011;1733;42.286;22.690;2023-04-01T00:58:02;16.70;;;7.90;;
3439;SDS011;1733;42.286;22.690;2023-04-01T01:00:31;14.83;;;8.70;;
3439;SDS011;1733;42.286;22.690;2023-04-01T01:02:59;12.63;;;6.53;;
3439;SDS011;1733;42.286;22.690;2023-04-01T01:05:30;12.17;;;7.23;;
3439;SDS011;1733;42.286;22.690;2023-04-01T01:08:07;10.77;;;8.20;;
3439;SDS011;1733;42.286;22.690;2023-04-01T01:10:42;17.67;;;11.37;;
3439;SDS011;1733;42.286;22.690;2023-04-01T01:13:15;17.13;;;9.30;;
3439;SDS011;1733;42.286;22.690;2023-04-01T01:15:45;15.27;;;7.60;;
3439;SDS011;1733;42.286;22.690;2023-04-01T01:18:18;9.90;;;7.23;;
3439;SDS011;1733;42.286;22.690;2023-04-01T01:21:00;12.00;;;8.80;;
3439;SDS011;1733;42.286;22.690;2023-04-01T01:23:56;14.13;;;8.33;;
3439;SDS011;1733;42.286;22.690;2023-04-01T01:26:42;18.23;;;11.27;;
3439;SDS011;1733;42.286;22.690;2023-04-01T01:29:25;20.80;;;9.17;;
3439;SDS011;1733;42.286;22.690;2023-04-01T01:32:07;11.50;;;9.60;;
3439;SDS011;1733;42.286;22.690;2023-04-01T01:34:46;15.87;;;9.57;;
3439;SDS011;1733;42.286;22.690;2023-04-01T01:37:19;15.73;;;6.30;;
3439;SDS011;1733;42.286;22.690;2023-04-01T01:39:50;9.60;;;6.13;;
3439;SDS011;1733;42.286;22.690;2023-04-01T01:42:20;11.77;;;8.60;;
3439;SDS011;1733;42.286;22.690;2023-04-01T01:44:50;12.77;;;7.27;;
3439;SDS011;1733;42.286;22.690;2023-04-01T01:47:18;19.80;;;8.90;;
3439;SDS011;1733;42.286;22.690;2023-04-01T01:49:47;15.03;;;8.30;;
3439;SDS011;1733;42.286;22.690;2023-04-01T01:52:16;16.50;;;7.50;;
3439;SDS011;1733;42.286;22.690;2023-04-01T01:54:48;10.63;;;7.20;;
3439;SDS011;1733;42.286;22.690;2023-04-01T01:57:16;10.53;;;7.93;;
3439;SDS011;1733;42.286;22.690;2023-04-01T01:59:45;10.57;;;7.40;;
3439;SDS011;1733;42.286;22.690;2023-04-01T02:02:14;8.83;;;7.90;;
3439;SDS011;1733;42.286;22.690;2023-04-01T02:04:43;11.60;;;6.70;;
3439;SDS011;1733;42.286;22.690;2023-04-01T02:07:13;13.10;;;8.90;;
3439;SDS011;1733;42.286;22.690;2023-04-01T02:09:44;6.30;;;5.60;;
3439;SDS011;1733;42.286;22.690;2023-04-01T02:12:13;6.97;;;6.27;;
3439;SDS011;1733;42.286;22.690;2023-04-01T02:14:43;6.40;;;5.77;;
3439;SDS011;1733;42.286;22.690;2023-04-01T02:17:15;7.13;;;4.73;;
3439;SDS011;1733;42.286;22.690;2023-04-01T02:19:45;4.77;;;4.30;;
3439;SDS011;1733;42.286;22.690;2023-04-01T02:22:16;5.97;;;3.93;;
3439;SDS011;1733;42.286;22.690;2023-04-01T02:24:46;5.27;;;4.00;;
3439;SDS011;1733;42.286;22.690;2023-04-01T02:27:16;5.37;;;4.10;;
3439;SDS011;1733;42.286;22.690;2023-04-01T02:29:43;4.57;;;4.17;;
3439;SDS011;1733;42.286;22.690;2023-04-01T02:32:10;6.70;;;4.50;;
3439;SDS011;1733;42.286;22.690;2023-04-01T02:34:39;7.20;;;4.70;;
3439;SDS011;1733;42.286;22.690;2023-04-01T02:37:06;11.43;;;4.50;;
3439;SDS011;1733;42.286;22.690;2023-04-01T02:39:33;7.17;;;5.30;;
3439;SDS011;1733;42.286;22.690;2023-04-01T02:42:00;9.13;;;4.60;;
3439;SDS011;1733;42.286;22.690;2023-04-01T02:44:28;11.90;;;5.10;;
3439;SDS011;1733;42.286;22.690;2023-04-01T02:46:55;4.97;;;4.13;;
3439;SDS011;1733;42.286;22.690;2023-04-01T02:49:22;11.20;;;6.73;;
3439;SDS011;1733;42.286;22.690;2023-04-01T02:51:49;7.70;;;4.13;;
3439;SDS011;1733;42.286;22.690;2023-04-01T02:54:17;5.03;;;3.63;;
3439;SDS011;1733;42.286;22.690;2023-04-01T02:56:43;3.90;;;3.40;;
3439;SDS011;1733;42.286;22.690;2023-04-01T02:59:11;3.97;;;3.57;;
3439;SDS011;1733;42.286;22.690;2023-04-01T03:01:39;4.00;;;3.70;;
3439;SDS011;1733;42.286;22.690;2023-04-01T03:04:06;5.07;;;3.97;;
3439;SDS011;1733;42.286;22.690;2023-04-01T03:06:33;8.23;;;3.60;;
3439;SDS011;1733;42.286;22.690;2023-04-01T03:09:00;4.63;;;3.80;;
3439;SDS011;1733;42.286;22.690;2023-04-01T03:11:27;8.43;;;4.30;;
3439;SDS011;1733;42.286;22.690;2023-04-01T03:13:54;8.73;;;5.03;;
3439;SDS011;1733;42.286;22.690;2023-04-01T03:16:21;6.73;;;5.87;;
3439;SDS011;1733;42.286;22.690;2023-04-01T03:18:49;6.47;;;5.87;;
3439;SDS011;1733;42.286;22.690;2023-04-01T03:21:19;10.93;;;7.90;;
3439;SDS011;1733;42.286;22.690;2023-04-01T03:23:47;11.60;;;5.90;;
3439;SDS011;1733;42.286;22.690;2023-04-01T03:26:18;7.90;;;7.10;;
3439;SDS011;1733;42.286;22.690;2023-04-01T03:28:46;13.23;;;7.10;;
3439;SDS011;1733;42.286;22.690;2023-04-01T03:31:21;12.77;;;8.80;;
3439;SDS011;1733;42.286;22.690;2023-04-01T03:33:52;11.53;;;8.07;;
3439;SDS011;1733;42.286;22.690;2023-04-01T03:36:19;12.10;;;7.23;;
3439;SDS011;1733;42.286;22.690;2023-04-01T03:38:47;12.63;;;7.57;;
3439;SDS011;1733;42.286;22.690;2023-04-01T03:41:15;10.30;;;6.77;;
3439;SDS011;1733;42.286;22.690;2023-04-01T03:43:43;14.70;;;7.87;;
3439;SDS011;1733;42.286;22.690;2023-04-01T03:46:10;10.13;;;7.00;;
3439;SDS011;1733;42.286;22.690;2023-04-01T03:48:37;15.07;;;7.50;;
3439;SDS011;1733;42.286;22.690;2023-04-01T03:51:07;16.50;;;6.50;;
3439;SDS011;1733;42.286;22.690;2023-04-01T03:53:35;9.77;;;5.13;;
3439;SDS011;1733;42.286;22.690;2023-04-01T03:56:03;9.10;;;7.20;;
3439;SDS011;1733;42.286;22.690;2023-04-01T03:58:30;8.63;;;5.60;;
3439;SDS011;1733;42.286;22.690;2023-04-01T04:00:58;7.63;;;6.47;;
3439;SDS011;1733;42.286;22.690;2023-04-01T04:03:24;17.53;;;6.70;;
3439;SDS011;1733;42.286;22.690;2023-04-01T04:05:52;9.63;;;6.90;;
3439;SDS011;1733;42.286;22.690;2023-04-01T04:08:20;9.83;;;6.70;;
3439;SDS011;1733;42.286;22.690;2023-04-01T04:10:47;11.83;;;6.57;;
3439;SDS011;1733;42.286;22.690;2023-04-01T04:13:20;7.97;;;6.60;;
3439;SDS011;1733;42.286;22.690;2023-04-01T04:15:47;10.80;;;7.40;;
3439;SDS011;1733;42.286;22.690;2023-04-01T04:18:14;11.23;;;6.90;;
3439;SDS011;1733;42.286;22.690;2023-04-01T04:20:43;8.13;;;5.50;;
3439;SDS011;1733;42.286;22.690;2023-04-01T04:23:12;11.37;;;7.50;;
3439;SDS011;1733;42.286;22.690;2023-04-01T04:25:40;8.70;;;4.33;;
3439;SDS011;1733;42.286;22.690;2023-04-01T04:28:07;7.00;;;6.30;;
3439;SDS011;1733;42.286;22.690;2023-04-01T04:30:34;7.60;;;5.47;;
3439;SDS011;1733;42.286;22.690;2023-04-01T04:33:00;10.47;;;8.87;;
3439;SDS011;1733;42.286;22.690;2023-04-01T04:35:28;10.67;;;8.27;;
3439;SDS011;1733;42.286;22.690;2023-04-01T04:37:55;16.73;;;9.57;;
3439;SDS011;1733;42.286;22.690;2023-04-01T04:40:21;9.13;;;6.00;;
3439;SDS011;1733;42.286;22.690;2023-04-01T04:42:50;11.13;;;7.43;;
3439;SDS011;1733;42.286;22.690;2023-04-01T04:45:16;14.17;;;6.67;;
3439;SDS011;1733;42.286;22.690;2023-04-01T04:47:43;8.97;;;8.03;;
3439;SDS011;1733;42.286;22.690;2023-04-01T04:50:10;31.17;;;9.27;;
3439;SDS011;1733;42.286;22.690;2023-04-01T04:52:38;11.17;;;7.80;;
3439;SDS011;1733;42.286;22.690;2023-04-01T04:55:05;20.53;;;8.70;;
3439;SDS011;1733;42.286;22.690;2023-04-01T04:57:32;10.13;;;8.37;;
3439;SDS011;1733;42.286;22.690;2023-04-01T05:00:00;23.30;;;9.23;;
3439;SDS011;1733;42.286;22.690;2023-04-01T05:02:27;14.10;;;10.40;;
3439;SDS011;1733;42.286;22.690;2023-04-01T05:04:55;18.43;;;11.23;;
3439;SDS011;1733;42.286;22.690;2023-04-01T05:07:22;10.40;;;7.50;;
3439;SDS011;1733;42.286;22.690;2023-04-01T05:09:49;14.67;;;10.30;;
3439;SDS011;1733;42.286;22.690;2023-04-01T05:12:16;29.47;;;16.90;;
3439;SDS011;1733;42.286;22.690;2023-04-01T05:14:43;22.10;;;14.33;;
3439;SDS011;1733;42.286;22.690;2023-04-01T05:17:12;16.37;;;11.63;;
3439;SDS011;1733;42.286;22.690;2023-04-01T05:19:39;15.80;;;11.80;;
3439;SDS011;1733;42.286;22.690;2023-04-01T05:22:06;16.27;;;9.43;;
3439;SDS011;1733;42.286;22.690;2023-04-01T05:24:33;15.60;;;8.80;;
3439;SDS011;1733;42.286;22.690;2023-04-01T05:27:00;13.37;;;9.50;;
3439;SDS011;1733;42.286;22.690;2023-04-01T05:29:27;17.97;;;12.17;;
3439;SDS011;1733;42.286;22.690;2023-04-01T05:31:54;26.43;;;15.27;;
3439;SDS011;1733;42.286;22.690;2023-04-01T05:34:22;25.97;;;12.07;;
3439;SDS011;1733;42.286;22.690;2023-04-01T05:36:49;16.43;;;11.40;;
3439;SDS011;1733;42.286;22.690;2023-04-01T05:39:17;14.90;;;10.73;;
3439;SDS011;1733;42.286;22.690;2023-04-01T05:41:44;21.10;;;13.23;;
3439;SDS011;1733;42.286;22.690;2023-04-01T05:44:11;24.67;;;12.20;;
3439;SDS011;1733;42.286;22.690;2023-04-01T05:46:39;25.97;;;11.90;;
3439;SDS011;1733;42.286;22.690;2023-04-01T05:49:05;22.07;;;12.13;;
3439;SDS011;1733;42.286;22.690;2023-04-01T05:51:34;22.97;;;11.07;;
3439;SDS011;1733;42.286;22.690;2023-04-01T05:54:02;13.90;;;9.83;;
3439;SDS011;1733;42.286;22.690;2023-04-01T05:56:30;15.20;;;9.70;;
3439;SDS011;1733;42.286;22.690;2023-04-01T05:58:57;23.90;;;12.03;;
3439;SDS011;1733;42.286;22.690;2023-04-01T06:01:24;23.73;;;16.30;;
3439;SDS011;1733;42.286;22.690;2023-04-01T06:03:51;26.00;;;12.40;;
3439;SDS011;1733;42.286;22.690;2023-04-01T06:06:20;13.00;;;10.50;;
3439;SDS011;1733;42.286;22.690;2023-04-01T06:08:52;10.23;;;8.37;;
3439;SDS011;1733;42.286;22.690;2023-04-01T06:11:26;18.73;;;10.30;;
3439;SDS011;1733;42.286;22.690;2023-04-01T06:14:03;11.23;;;8.43;;
3439;SDS011;1733;42.286;22.690;2023-04-01T06:16:49;11.20;;;9.07;;
3439;SDS011;1733;42.286;22.690;2023-04-01T06:19:32;10.80;;;9.17;;
3439;SDS011;1733;42.286;22.690;2023-04-01T06:22:13;7.43;;;6.40;;
3439;SDS011;1733;42.286;22.690;2023-04-01T06:25:07;9.70;;;6.27;;
3439;SDS011;1733;42.286;22.690;2023-04-01T06:27:48;6.10;;;5.13;;
3439;SDS011;1733;42.286;22.690;2023-04-01T06:30:30;7.17;;;6.50;;
3439;SDS011;1733;42.286;22.690;2023-04-01T06:33:04;7.00;;;4.67;;
3439;SDS011;1733;42.286;22.690;2023-04-01T06:35:50;17.50;;;7.87;;
3439;SDS011;1733;42.286;22.690;2023-04-01T06:38:39;15.60;;;8.80;;
3439;SDS011;1733;42.286;22.690;2023-04-01T06:41:28;13.07;;;7.03;;
3439;SDS011;1733;42.286;22.690;2023-04-01T06:44:09;5.97;;;4.97;;
3439;SDS011;1733;42.286;22.690;2023-04-01T06:46:44;11.73;;;7.40;;
3439;SDS011;1733;42.286;22.690;2023-04-01T06:52:08;9.93;;;6.10;;
3439;SDS011;1733;42.286;22.690;2023-04-01T06:54:46;11.93;;;6.80;;
3439;SDS011;1733;42.286;22.690;2023-04-01T06:57:21;10.43;;;7.40;;
3439;SDS011;1733;42.286;22.690;2023-04-01T06:59:57;7.93;;;5.50;;
3439;SDS011;1733;42.286;22.690;2023-04-01T07:02:29;12.30;;;4.40;;
3439;SDS011;1733;42.286;22.690;2023-04-01T07:05:02;7.93;;;5.53;;
3439;SDS011;1733;42.286;22.690;2023-04-01T07:07:33;12.17;;;5.30;;
3439;SDS011;1733;42.286;22.690;2023-04-01T07:10:05;4.10;;;3.80;;
3439;SDS011;1733;42.286;22.690;2023-04-01T07:12:42;6.53;;;4.33;;
3439;SDS011;1733;42.286;22.690;2023-04-01T07:15:16;4.23;;;3.70;;
3439;SDS011;1733;42.286;22.690;2023-04-01T07:17:46;6.97;;;5.53;;
3439;SDS011;1733;42.286;22.690;2023-04-01T07:20:20;5.33;;;4.17;;
3439;SDS011;1733;42.286;22.690;2023-04-01T07:22:52;9.83;;;5.20;;
3439;SDS011;1733;42.286;22.690;2023-04-01T07:25:24;6.93;;;5.80;;
3439;SDS011;1733;42.286;22.690;2023-04-01T07:27:56;9.87;;;5.70;;
3439;SDS011;1733;42.286;22.690;2023-04-01T07:30:27;12.70;;;8.13;;
3439;SDS011;1733;42.286;22.690;2023-04-01T07:33:01;7.17;;;4.70;;
3439;SDS011;1733;42.286;22.690;2023-04-01T07:35:36;6.30;;;4.87;;
3439;SDS011;1733;42.286;22.690;2023-04-01T07:38:11;6.80;;;5.60;;
3439;SDS011;1733;42.286;22.690;2023-04-01T07:40:49;5.40;;;4.00;;
3439;SDS011;1733;42.286;22.690;2023-04-01T07:43:35;6.53;;;4.30;;
3439;SDS011;1733;42.286;22.690;2023-04-01T07:46:18;9.37;;;5.37;;
3439;SDS011;1733;42.286;22.690;2023-04-01T07:48:56;6.90;;;3.90;;
3439;SDS011;1733;42.286;22.690;2023-04-01T07:51:31;5.03;;;4.60;;
3439;SDS011;1733;42.286;22.690;2023-04-01T07:54:07;3.57;;;3.00;;
3439;SDS011;1733;42.286;22.690;2023-04-01T07:56:39;3.77;;;3.47;;
3439;SDS011;1733;42.286;22.690;2023-04-01T07:59:14;5.00;;;3.20;;
3439;SDS011;1733;42.286;22.690;2023-04-01T08:01:52;5.67;;;3.97;;
3439;SDS011;1733;42.286;22.690;2023-04-01T08:04:28;4.13;;;3.73;;
3439;SDS011;1733;42.286;22.690;2023-04-01T08:07:19;7.10;;;5.33;;
3439;SDS011;1733;42.286;22.690;2023-04-01T08:09:51;11.23;;;8.73;;
3439;SDS011;1733;42.286;22.690;2023-04-01T08:12:28;21.73;;;9.70;;
3439;SDS011;1733;42.286;22.690;2023-04-01T08:15:11;11.83;;;7.13;;
3439;SDS011;1733;42.286;22.690;2023-04-01T08:17:48;7.60;;;5.67;;
3439;SDS011;1733;42.286;22.690;2023-04-01T08:20:26;15.37;;;6.00;;
3439;SDS011;1733;42.286;22.690;2023-04-01T08:22:59;17.57;;;6.07;;
3439;SDS011;1733;42.286;22.690;2023-04-01T08:25:33;8.90;;;6.20;;
3439;SDS011;1733;42.286;22.690;2023-04-01T08:28:04;12.40;;;5.57;;
3439;SDS011;1733;42.286;22.690;2023-04-01T08:30:43;11.07;;;5.53;;
3439;SDS011;1733;42.286;22.690;2023-04-01T08:33:16;6.50;;;5.50;;
3439;SDS011;1733;42.286;22.690;2023-04-01T08:35:46;9.93;;;5.23;;
3439;SDS011;1733;42.286;22.690;2023-04-01T08:38:19;9.60;;;6.00;;
3439;SDS011;1733;42.286;22.690;2023-04-01T08:43:51;13.83;;;4.97;;
3439;SDS011;1733;42.286;22.690;2023-04-01T08:49:50;4.27;;;3.93;;
3439;SDS011;1733;42.286;22.690;2023-04-01T08:52:35;3.80;;;3.07;;
3439;SDS011;1733;42.286;22.690;2023-04-01T09:01:13;4.60;;;3.73;;
3439;SDS011;1733;42.286;22.690;2023-04-01T09:04:01;5.23;;;3.50;;
3439;SDS011;1733;42.286;22.690;2023-04-01T09:06:46;5.83;;;5.00;;
3439;SDS011;1733;42.286;22.690;2023-04-01T09:12:36;4.23;;;3.87;;
3439;SDS011;1733;42.286;22.690;2023-04-01T09:18:20;7.03;;;4.00;;
3439;SDS011;1733;42.286;22.690;2023-04-01T09:21:11;18.17;;;10.60;;
3439;SDS011;1733;42.286;22.690;2023-04-01T09:24:17;6.10;;;5.33;;
3439;SDS011;1733;42.286;22.690;2023-04-01T09:27:05;13.20;;;7.03;;
3439;SDS011;1733;42.286;22.690;2023-04-01T09:33:00;14.07;;;8.60;;
3439;SDS011;1733;42.286;22.690;2023-04-01T09:35:42;9.77;;;5.90;;
3439;SDS011;1733;42.286;22.690;2023-04-01T09:38:22;6.43;;;5.43;;
3439;SDS011;1733;42.286;22.690;2023-04-01T09:40:57;7.03;;;5.70;;
3439;SDS011;1733;42.286;22.690;2023-04-01T09:43:33;6.40;;;5.13;;
3439;SDS011;1733;42.286;22.690;2023-04-01T09:46:21;10.30;;;6.73;;
3439;SDS011;1733;42.286;22.690;2023-04-01T09:48:58;9.10;;;6.13;;
3439;SDS011;1733;42.286;22.690;2023-04-01T09:51:49;9.33;;;4.40;;
3439;SDS011;1733;42.286;22.690;2023-04-01T09:54:37;7.93;;;5.47;;
3439;SDS011;1733;42.286;22.690;2023-04-01T10:00:20;6.03;;;4.80;;
3439;SDS011;1733;42.286;22.690;2023-04-01T10:03:10;10.57;;;4.83;;
3439;SDS011;1733;42.286;22.690;2023-04-01T10:06:20;9.33;;;6.70;;
3439;SDS011;1733;42.286;22.690;2023-04-01T10:12:49;6.60;;;3.17;;
3439;SDS011;1733;42.286;22.690;2023-04-01T10:18:55;9.87;;;6.57;;
3439;SDS011;1733;42.286;22.690;2023-04-01T10:24:47;8.07;;;4.43;;
3439;SDS011;1733;42.286;22.690;2023-04-01T10:27:38;6.33;;;3.30;;
3439;SDS011;1733;42.286;22.690;2023-04-01T10:36:50;5.47;;;3.60;;
3439;SDS011;1733;42.286;22.690;2023-04-01T10:39:37;3.17;;;2.73;;
3439;SDS011;1733;42.286;22.690;2023-04-01T10:48:42;4.23;;;3.07;;
3439;SDS011;1733;42.286;22.690;2023-04-01T10:51:43;7.13;;;3.40;;
3439;SDS011;1733;42.286;22.690;2023-04-01T10:54:40;4.47;;;2.47;;
3439;SDS011;1733;42.286;22.690;2023-04-01T10:57:16;2.70;;;1.60;;
3439;SDS011;1733;42.286;22.690;2023-04-01T11:00:23;4.60;;;2.67;;
3439;SDS011;1733;42.286;22.690;2023-04-01T11:06:11;4.40;;;3.43;;
3439;SDS011;1733;42.286;22.690;2023-04-01T11:09:19;2.37;;;2.10;;
3439;SDS011;1733;42.286;22.690;2023-04-01T11:15:36;3.00;;;1.83;;
3439;SDS011;1733;42.286;22.690;2023-04-01T11:21:47;5.00;;;3.73;;
3439;SDS011;1733;42.286;22.690;2023-04-01T11:24:32;7.23;;;2.93;;
3439;SDS011;1733;42.286;22.690;2023-04-01T11:27:16;4.13;;;2.03;;
3439;SDS011;1733;42.286;22.690;2023-04-01T11:29:57;7.37;;;4.47;;
3439;SDS011;1733;42.286;22.690;2023-04-01T11:32:43;5.80;;;4.10;;
3439;SDS011;1733;42.286;22.690;2023-04-01T11:35:22;11.70;;;8.13;;
3439;SDS011;1733;42.286;22.690;2023-04-01T11:38:04;9.10;;;4.10;;
3439;SDS011;1733;42.286;22.690;2023-04-01T11:40:41;5.30;;;3.77;;
3439;SDS011;1733;42.286;22.690;2023-04-01T11:43:16;9.87;;;5.50;;
3439;SDS011;1733;42.286;22.690;2023-04-01T11:45:51;4.93;;;2.73;;
3439;SDS011;1733;42.286;22.690;2023-04-01T11:48:29;16.87;;;8.17;;
3439;SDS011;1733;42.286;22.690;2023-04-01T11:51:15;11.80;;;4.83;;
3439;SDS011;1733;42.286;22.690;2023-04-01T11:53:55;4.47;;;4.00;;
3439;SDS011;1733;42.286;22.690;2023-04-01T11:56:35;3.60;;;3.07;;
3439;SDS011;1733;42.286;22.690;2023-04-01T11:59:21;6.73;;;2.87;;
3439;SDS011;1733;42.286;22.690;2023-04-01T12:02:03;3.47;;;3.17;;
3439;SDS011;1733;42.286;22.690;2023-04-01T12:04:45;5.53;;;3.50;;
3439;SDS011;1733;42.286;22.690;2023-04-01T12:07:23;5.13;;;2.83;;
3439;SDS011;1733;42.286;22.690;2023-04-01T12:10:02;2.83;;;2.20;;
3439;SDS011;1733;42.286;22.690;2023-04-01T12:12:39;7.43;;;3.47;;
3439;SDS011;1733;42.286;22.690;2023-04-01T12:15:16;2.93;;;2.70;;
3439;SDS011;1733;42.286;22.690;2023-04-01T12:17:50;5.13;;;2.40;;
3439;SDS011;1733;42.286;22.690;2023-04-01T12:20:28;3.03;;;2.50;;
3439;SDS011;1733;42.286;22.690;2023-04-01T12:23:06;3.37;;;2.53;;
3439;SDS011;1733;42.286;22.690;2023-04-01T12:28:36;3.30;;;2.83;;
3439;SDS011;1733;42.286;22.690;2023-04-01T12:34:20;3.23;;;3.00;;
3439;SDS011;1733;42.286;22.690;2023-04-01T12:37:12;3.67;;;2.60;;
3439;SDS011;1733;42.286;22.690;2023-04-01T12:39:50;5.90;;;3.57;;
3439;SDS011;1733;42.286;22.690;2023-04-01T12:42:34;4.03;;;3.30;;
3439;SDS011;1733;42.286;22.690;2023-04-01T12:45:17;2.67;;;2.47;;
3439;SDS011;1733;42.286;22.690;2023-04-01T12:48:08;6.17;;;3.50;;
3439;SDS011;1733;42.286;22.690;2023-04-01T12:56:55;15.27;;;5.17;;
3439;SDS011;1733;42.286;22.690;2023-04-01T12:59:37;4.80;;;4.23;;
3439;SDS011;1733;42.286;22.690;2023-04-01T13:02:11;10.77;;;5.27;;
3439;SDS011;1733;42.286;22.690;2023-04-01T13:04:48;6.70;;;4.20;;
3439;SDS011;1733;42.286;22.690;2023-04-01T13:07:50;9.83;;;6.30;;
3439;SDS011;1733;42.286;22.690;2023-04-01T13:10:38;7.80;;;4.67;;
3439;SDS011;1733;42.286;22.690;2023-04-01T13:13:22;2.60;;;2.40;;
3439;SDS011;1733;42.286;22.690;2023-04-01T13:16:03;3.17;;;2.80;;
3439;SDS011;1733;42.286;22.690;2023-04-01T13:18:38;8.30;;;5.63;;
3439;SDS011;1733;42.286;22.690;2023-04-01T13:21:12;6.70;;;6.00;;
3439;SDS011;1733;42.286;22.690;2023-04-01T13:23:50;3.60;;;2.83;;
3439;SDS011;1733;42.286;22.690;2023-04-01T13:26:26;3.50;;;2.87;;
3439;SDS011;1733;42.286;22.690;2023-04-01T13:28:58;2.53;;;2.33;;
3439;SDS011;1733;42.286;22.690;2023-04-01T13:31:38;3.97;;;3.10;;
3439;SDS011;1733;42.286;22.690;2023-04-01T13:34:23;7.00;;;4.60;;
3439;SDS011;1733;42.286;22.690;2023-04-01T13:37:03;6.97;;;4.30;;
3439;SDS011;1733;42.286;22.690;2023-04-01T13:39:51;7.87;;;5.93;;
3439;SDS011;1733;42.286;22.690;2023-04-01T13:42:29;4.63;;;3.67;;
3439;SDS011;1733;42.286;22.690;2023-04-01T13:45:02;10.30;;;4.77;;
3439;SDS011;1733;42.286;22.690;2023-04-01T13:54:01;7.83;;;3.10;;
3439;SDS011;1733;42.286;22.690;2023-04-01T13:56:53;4.27;;;3.47;;
3439;SDS011;1733;42.286;22.690;2023-04-01T13:59:43;5.10;;;4.60;;
3439;SDS011;1733;42.286;22.690;2023-04-01T14:02:41;3.00;;;2.10;;
3439;SDS011;1733;42.286;22.690;2023-04-01T14:05:23;4.87;;;4.27;;
3439;SDS011;1733;42.286;22.690;2023-04-01T14:08:01;2.97;;;2.60;;
3439;SDS011;1733;42.286;22.690;2023-04-01T14:10:42;3.50;;;3.20;;
3439;SDS011;1733;42.286;22.690;2023-04-01T14:13:13;3.23;;;3.03;;
3439;SDS011;1733;42.286;22.690;2023-04-01T14:18:53;3.20;;;2.80;;
3439;SDS011;1733;42.286;22.690;2023-04-01T14:21:32;2.53;;;2.30;;
3439;SDS011;1733;42.286;22.690;2023-04-01T14:27:06;3.87;;;2.27;;
3439;SDS011;1733;42.286;22.690;2023-04-01T14:29:47;2.10;;;2.00;;
3439;SDS011;1733;42.286;22.690;2023-04-01T14:32:27;2.28;;;2.08;;
3439;SDS011;1733;42.286;22.690;2023-04-01T14:38:02;5.32;;;2.78;;
3439;SDS011;1733;42.286;22.690;2023-04-01T14:40:56;4.35;;;3.40;;
3439;SDS011;1733;42.286;22.690;2023-04-01T14:43:48;4.10;;;2.38;;
3439;SDS011;1733;42.286;22.690;2023-04-01T14:46:52;2.63;;;2.42;;
3439;SDS011;1733;42.286;22.690;2023-04-01T14:49:32;4.18;;;2.95;;
3439;SDS011;1733;42.286;22.690;2023-04-01T14:52:05;2.20;;;2.00;;
3439;SDS011;1733;42.286;22.690;2023-04-01T14:54:42;3.65;;;2.25;;
3439;SDS011;1733;42.286;22.690;2023-04-01T14:57:11;3.63;;;2.75;;
3439;SDS011;1733;42.286;22.690;2023-04-01T14:59:45;2.97;;;2.25;;
3439;SDS011;1733;42.286;22.690;2023-04-01T15:02:18;3.53;;;2.55;;
3439;SDS011;1733;42.286;22.690;2023-04-01T15:05:15;3.13;;;2.67;;
3439;SDS011;1733;42.286;22.690;2023-04-01T15:07:54;3.63;;;2.50;;
3439;SDS011;1733;42.286;22.690;2023-04-01T15:13:49;4.90;;;2.70;;
3439;SDS011;1733;42.286;22.690;2023-04-01T15:16:39;4.82;;;3.17;;
3439;SDS011;1733;42.286;22.690;2023-04-01T15:19:15;4.25;;;3.85;;
3439;SDS011;1733;42.286;22.690;2023-04-01T15:21:50;3.50;;;2.90;;
3439;SDS011;1733;42.286;22.690;2023-04-01T15:24:41;4.00;;;2.83;;
3439;SDS011;1733;42.286;22.690;2023-04-01T15:27:19;3.88;;;2.25;;
3439;SDS011;1733;42.286;22.690;2023-04-01T15:30:15;3.20;;;2.78;;
3439;SDS011;1733;42.286;22.690;2023-04-01T15:32:52;4.40;;;3.05;;
3439;SDS011;1733;42.286;22.690;2023-04-01T15:35:36;3.38;;;2.15;;
3439;SDS011;1733;42.286;22.690;2023-04-01T15:38:10;4.10;;;3.30;;
3439;SDS011;1733;42.286;22.690;2023-04-01T15:40:49;2.70;;;2.50;;
3439;SDS011;1733;42.286;22.690;2023-04-01T15:43:27;3.60;;;2.30;;
3439;SDS011;1733;42.286;22.690;2023-04-01T15:46:09;8.80;;;2.83;;
3439;SDS011;1733;42.286;22.690;2023-04-01T15:48:48;2.20;;;2.00;;
3439;SDS011;1733;42.286;22.690;2023-04-01T15:51:30;2.67;;;2.47;;
3439;SDS011;1733;42.286;22.690;2023-04-01T15:54:22;3.10;;;2.03;;
3439;SDS011;1733;42.286;22.690;2023-04-01T15:57:08;1.97;;;1.87;;
3439;SDS011;1733;42.286;22.690;2023-04-01T15:59:48;1.70;;;1.57;;
3439;SDS011;1733;42.286;22.690;2023-04-01T16:02:27;4.23;;;2.50;;
3439;SDS011;1733;42.286;22.690;2023-04-01T16:05:01;2.20;;;2.00;;
3439;SDS011;1733;42.286;22.690;2023-04-01T16:07:42;2.10;;;1.93;;
3439;SDS011;1733;42.286;22.690;2023-04-01T16:10:22;2.87;;;2.37;;
3439;SDS011;1733;42.286;22.690;2023-04-01T16:13:03;5.13;;;2.47;;
3439;SDS011;1733;42.286;22.690;2023-04-01T16:15:57;3.13;;;1.77;;
3439;SDS011;1733;42.286;22.690;2023-04-01T16:18:39;1.90;;;1.80;;
3439;SDS011;1733;42.286;22.690;2023-04-01T16:21:34;2.03;;;1.77;;
3439;SDS011;1733;42.286;22.690;2023-04-01T16:24:05;2.80;;;2.60;;
3439;SDS011;1733;42.286;22.690;2023-04-01T16:26:43;2.00;;;1.80;;
3439;SDS011;1733;42.286;22.690;2023-04-01T16:29:17;4.83;;;3.20;;
3439;SDS011;1733;42.286;22.690;2023-04-01T16:31:51;2.23;;;2.03;;
3439;SDS011;1733;42.286;22.690;2023-04-01T16:34:24;1.60;;;1.50;;
3439;SDS011;1733;42.286;22.690;2023-04-01T16:37:00;3.03;;;2.00;;
3439;SDS011;1733;42.286;22.690;2023-04-01T16:39:41;2.20;;;2.00;;
3439;SDS011;1733;42.286;22.690;2023-04-01T16:45:15;2.60;;;2.40;;
3439;SDS011;1733;42.286;22.690;2023-04-01T16:47:47;5.60;;;3.47;;
3439;SDS011;1733;42.286;22.690;2023-04-01T16:50:18;8.13;;;3.33;;
3439;SDS011;1733;42.286;22.690;2023-04-01T16:52:53;2.10;;;1.97;;
3439;SDS011;1733;42.286;22.690;2023-04-01T16:55:34;2.53;;;1.97;;
3439;SDS011;1733;42.286;22.690;2023-04-01T16:58:02;3.70;;;3.13;;
3439;SDS011;1733;42.286;22.690;2023-04-01T17:00:30;9.80;;;7.57;;
3439;SDS011;1733;42.286;22.690;2023-04-01T17:03:08;2.40;;;2.20;;
3439;SDS011;1733;42.286;22.690;2023-04-01T17:05:45;7.80;;;3.30;;
3439;SDS011;1733;42.286;22.690;2023-04-01T17:08:24;3.73;;;1.50;;
3439;SDS011;1733;42.286;22.690;2023-04-01T17:11:12;2.20;;;1.80;;
3439;SDS011;1733;42.286;22.690;2023-04-01T17:13:46;2.40;;;2.30;;
3439;SDS011;1733;42.286;22.690;2023-04-01T17:16:28;4.80;;;3.27;;
3439;SDS011;1733;42.286;22.690;2023-04-01T17:19:09;3.87;;;2.80;;
3439;SDS011;1733;42.286;22.690;2023-04-01T17:21:54;2.67;;;2.03;;